createdAt,value
2022-11-20T00:00:54.245Z,0.00
2022-11-20T00:01:54.878Z,0.00
2022-11-20T00:02:55.494Z,0.00
2022-11-20T00:03:56.132Z,0.00
2022-11-20T00:04:56.706Z,0.00
2022-11-20T00:05:57.316Z,0.00
2022-11-20T00:06:57.916Z,0.00
2022-11-20T00:07:58.550Z,0.00
2022-11-20T00:08:59.131Z,0.00
2022-11-20T00:09:59.708Z,0.00
2022-11-20T00:11:00.347Z,0.00
2022-11-20T00:12:00.936Z,0.00
2022-11-20T00:13:01.525Z,0.00
2022-11-20T00:14:02.105Z,0.00
2022-11-20T00:15:02.681Z,0.00
2022-11-20T00:16:03.389Z,0.00
2022-11-20T00:17:03.966Z,0.00
2022-11-20T00:18:04.536Z,0.00
2022-11-20T00:19:05.150Z,0.00
2022-11-20T00:20:05.724Z,0.00
2022-11-20T00:21:06.334Z,0.00
2022-11-20T00:22:06.921Z,0.00
2022-11-20T00:23:07.489Z,0.00
2022-11-20T00:24:08.062Z,0.00
2022-11-20T00:25:08.642Z,0.00
2022-11-20T00:26:09.250Z,0.00
2022-11-20T00:27:09.820Z,0.00
2022-11-20T00:28:10.397Z,0.00
2022-11-20T00:29:10.981Z,0.00
2022-11-20T00:30:14.888Z,0.00
2022-11-20T00:31:12.365Z,0.00
2022-11-20T00:32:12.949Z,0.00
2022-11-20T00:33:13.526Z,0.00
2022-11-20T00:34:14.129Z,0.00
2022-11-20T00:35:14.714Z,0.00
2022-11-20T00:36:15.334Z,0.00
2022-11-20T00:37:15.917Z,0.00
2022-11-20T00:38:16.497Z,0.00
2022-11-20T00:39:17.061Z,0.00
2022-11-20T00:40:17.630Z,0.00
2022-11-20T00:41:18.264Z,0.00
2022-11-20T00:42:18.966Z,0.00
2022-11-20T00:43:19.552Z,0.00
2022-11-20T00:44:20.161Z,0.00
2022-11-20T00:45:20.757Z,0.00
2022-11-20T00:46:21.408Z,0.00
2022-11-20T00:47:21.991Z,0.00
2022-11-20T00:48:22.586Z,0.00
2022-11-20T00:49:23.662Z,0.00
2022-11-20T00:50:23.927Z,0.00
2022-11-20T00:51:24.543Z,0.00
2022-11-20T00:52:25.122Z,0.00
2022-11-20T00:53:26.029Z,0.00
2022-11-20T00:54:26.617Z,0.00
2022-11-20T00:55:27.204Z,0.00
2022-11-20T00:56:27.873Z,0.00
2022-11-20T00:57:28.450Z,0.00
2022-11-20T00:58:29.027Z,0.00
2022-11-20T00:59:29.612Z,0.00
2022-11-20T01:00:30.202Z,0.00
2022-11-20T01:01:30.935Z,0.00
2022-11-20T01:02:31.540Z,0.00
2022-11-20T01:03:32.125Z,0.00
2022-11-20T01:04:32.778Z,0.00
2022-11-20T01:05:33.366Z,0.00
2022-11-20T01:06:33.977Z,0.00
2022-11-20T01:07:34.635Z,0.00
2022-11-20T01:08:35.253Z,0.00
2022-11-20T01:09:35.844Z,0.00
2022-11-20T01:10:36.410Z,0.00
2022-11-20T01:11:37.057Z,0.00
2022-11-20T01:12:37.680Z,0.00
2022-11-20T01:13:38.266Z,0.00
2022-11-20T01:14:38.849Z,0.00
2022-11-20T01:15:39.446Z,0.00
2022-11-20T01:16:40.146Z,0.00
2022-11-20T01:17:40.719Z,0.00
2022-11-20T01:18:41.283Z,0.00
2022-11-20T01:19:41.853Z,0.00
2022-11-20T01:20:42.427Z,0.00
2022-11-20T01:21:43.029Z,0.00
2022-11-20T01:22:43.606Z,0.00
2022-11-20T01:23:44.197Z,0.00
2022-11-20T01:24:44.776Z,0.00
2022-11-20T01:25:45.358Z,0.00
2022-11-20T01:26:45.969Z,0.00
2022-11-20T01:27:46.539Z,0.00
2022-11-20T01:28:47.103Z,0.00
2022-11-20T01:29:47.667Z,0.00
2022-11-20T01:30:48.284Z,0.00
2022-11-20T01:31:49.188Z,0.00
2022-11-20T01:32:49.775Z,0.00
2022-11-20T01:33:50.351Z,0.00
2022-11-20T01:34:50.961Z,0.00
2022-11-20T01:35:51.544Z,0.00
2022-11-20T01:36:52.226Z,0.00
2022-11-20T01:37:52.804Z,0.00
2022-11-20T01:38:53.394Z,0.00
2022-11-20T01:39:53.969Z,0.00
2022-11-20T01:40:54.538Z,0.00
2022-11-20T01:41:55.161Z,0.00
2022-11-20T01:42:55.742Z,0.00
2022-11-20T01:43:56.327Z,0.00
2022-11-20T01:44:56.896Z,0.00
2022-11-20T01:45:57.473Z,0.00
2022-11-20T01:46:58.125Z,0.00
2022-11-20T01:47:58.702Z,0.00
2022-11-20T01:48:59.288Z,0.00
2022-11-20T01:49:59.862Z,0.00
2022-11-20T01:51:00.431Z,0.00
2022-11-20T01:52:01.033Z,0.00
2022-11-20T01:53:01.613Z,0.00
2022-11-20T01:54:02.200Z,0.00
2022-11-20T01:55:02.780Z,0.00
2022-11-20T01:56:03.347Z,0.00
2022-11-20T01:57:03.995Z,0.00
2022-11-20T01:58:04.568Z,0.00
2022-11-20T01:59:05.210Z,0.00
2022-11-20T02:00:05.788Z,0.00
2022-11-20T02:01:06.416Z,0.00
2022-11-20T02:02:07.067Z,0.00
2022-11-20T02:03:07.639Z,0.00
2022-11-20T02:04:08.215Z,0.00
2022-11-20T02:05:08.793Z,0.00
2022-11-20T02:06:09.394Z,0.00
2022-11-20T02:07:10.166Z,0.00
2022-11-20T02:08:10.841Z,0.00
2022-11-20T02:09:11.416Z,0.00
2022-11-20T02:10:11.993Z,0.00
2022-11-20T02:11:12.573Z,0.00
2022-11-20T02:12:13.209Z,0.00
2022-11-20T02:13:13.776Z,0.00
2022-11-20T02:14:14.355Z,0.00
2022-11-20T02:15:14.925Z,0.00
2022-11-20T02:16:15.497Z,0.00
2022-11-20T02:17:16.198Z,0.00
2022-11-20T02:18:16.781Z,0.00
2022-11-20T02:19:17.373Z,0.00
2022-11-20T02:20:17.977Z,0.00
2022-11-20T02:21:18.559Z,0.00
2022-11-20T02:22:19.172Z,0.00
2022-11-20T02:23:19.756Z,0.00
2022-11-20T02:24:20.341Z,0.00
2022-11-20T02:25:20.922Z,0.00
2022-11-20T02:26:21.509Z,0.00
2022-11-20T02:27:22.123Z,0.00
2022-11-20T02:28:22.704Z,0.00
2022-11-20T02:29:23.483Z,0.00
2022-11-20T02:30:24.080Z,0.00
2022-11-20T02:31:24.649Z,0.00
2022-11-20T02:32:25.341Z,0.00
2022-11-20T02:33:25.932Z,0.00
2022-11-20T02:34:26.502Z,0.00
2022-11-20T02:35:27.072Z,0.00
2022-11-20T02:36:27.651Z,0.00
2022-11-20T02:37:28.261Z,0.00
2022-11-20T02:38:28.828Z,0.00
2022-11-20T02:39:29.400Z,0.00
2022-11-20T02:40:29.978Z,0.00
2022-11-20T02:41:30.561Z,0.00
2022-11-20T02:42:31.193Z,0.00
2022-11-20T02:43:31.763Z,0.00
2022-11-20T02:44:32.342Z,0.00
2022-11-20T02:45:32.916Z,0.00
2022-11-20T02:46:33.495Z,0.00
2022-11-20T02:47:34.154Z,0.00
2022-11-20T02:48:34.745Z,0.00
2022-11-20T02:49:35.309Z,0.00
2022-11-20T02:50:35.874Z,0.00
2022-11-20T02:51:36.471Z,0.00
2022-11-20T02:52:37.107Z,0.00
2022-11-20T02:53:37.723Z,0.00
2022-11-20T02:54:38.312Z,0.00
2022-11-20T02:55:38.889Z,0.00
2022-11-20T02:56:39.485Z,0.00
2022-11-20T02:57:40.147Z,0.00
2022-11-20T02:58:40.716Z,0.00
2022-11-20T02:59:41.301Z,0.00
2022-11-20T03:00:41.863Z,0.00
2022-11-20T03:01:42.527Z,0.00
2022-11-20T03:02:43.238Z,0.00
2022-11-20T03:03:43.824Z,0.00
2022-11-20T03:04:44.412Z,0.00
2022-11-20T03:05:44.991Z,0.00
2022-11-20T03:06:45.716Z,0.00
2022-11-20T03:07:46.724Z,0.00
2022-11-20T03:08:46.805Z,0.00
2022-11-20T03:09:47.376Z,0.00
2022-11-20T03:10:47.957Z,0.00
2022-11-20T03:11:48.524Z,0.00
2022-11-20T03:12:49.182Z,0.00
2022-11-20T03:13:49.749Z,0.00
2022-11-20T03:14:53.289Z,0.00
2022-11-20T03:15:51.035Z,0.00
2022-11-20T03:16:51.658Z,0.00
2022-11-20T03:17:52.391Z,0.00
2022-11-20T03:18:52.967Z,0.00
2022-11-20T03:19:53.532Z,0.00
2022-11-20T03:20:54.104Z,0.00
2022-11-20T03:21:54.686Z,0.00
2022-11-20T03:22:55.318Z,0.00
2022-11-20T03:23:55.904Z,0.00
2022-11-20T03:24:56.482Z,0.00
2022-11-20T03:25:57.050Z,0.00
2022-11-20T03:26:57.625Z,0.00
2022-11-20T03:27:58.232Z,0.00
2022-11-20T03:28:58.806Z,0.00
2022-11-20T03:29:59.393Z,0.00
2022-11-20T03:31:00.013Z,0.00
2022-11-20T03:32:00.627Z,0.00
2022-11-20T03:33:01.314Z,0.00
2022-11-20T03:34:01.878Z,0.00
2022-11-20T03:35:02.460Z,0.00
2022-11-20T03:36:03.038Z,0.00
2022-11-20T03:37:03.610Z,0.00
2022-11-20T03:38:04.302Z,0.00
2022-11-20T03:39:04.876Z,0.00
2022-11-20T03:40:05.447Z,0.00
2022-11-20T03:41:06.045Z,0.00
2022-11-20T03:42:06.620Z,0.00
2022-11-20T03:43:07.249Z,0.00
2022-11-20T03:44:07.831Z,0.00
2022-11-20T03:45:08.404Z,0.00
2022-11-20T03:46:08.988Z,0.00
2022-11-20T03:47:09.574Z,0.00
2022-11-20T03:48:10.241Z,0.00
2022-11-20T03:49:10.817Z,0.00
2022-11-20T03:50:11.387Z,0.00
2022-11-20T03:51:11.963Z,0.00
2022-11-20T03:52:12.538Z,0.00
2022-11-20T03:53:13.157Z,0.00
2022-11-20T03:54:13.722Z,0.00
2022-11-20T03:55:14.304Z,0.00
2022-11-20T03:56:14.883Z,0.00
2022-11-20T03:57:15.463Z,0.00
2022-11-20T03:58:16.123Z,0.00
2022-11-20T03:59:16.687Z,0.00
2022-11-20T04:00:17.268Z,0.00
2022-11-20T04:01:17.927Z,0.00
2022-11-20T04:02:18.652Z,0.00
2022-11-20T04:03:19.335Z,0.00
2022-11-20T04:04:19.906Z,0.00
2022-11-20T04:05:20.472Z,0.00
2022-11-20T04:06:21.044Z,0.00
2022-11-20T04:07:21.678Z,0.00
2022-11-20T04:08:22.621Z,0.00
2022-11-20T04:09:23.505Z,0.00
2022-11-20T04:10:23.873Z,0.00
2022-11-20T04:11:24.441Z,0.00
2022-11-20T04:12:25.008Z,0.00
2022-11-20T04:13:25.638Z,0.00
2022-11-20T04:14:26.228Z,0.00
2022-11-20T04:15:26.799Z,0.00
2022-11-20T04:16:27.371Z,0.00
2022-11-20T04:17:27.958Z,0.00
2022-11-20T04:18:28.647Z,0.00
2022-11-20T04:19:29.212Z,0.00
2022-11-20T04:20:29.788Z,0.00
2022-11-20T04:21:30.374Z,0.00
2022-11-20T04:22:30.946Z,0.00
2022-11-20T04:23:50.234Z,0.00
2022-11-20T04:24:32.176Z,0.00
2022-11-20T04:25:32.756Z,0.00
2022-11-20T04:26:33.321Z,0.00
2022-11-20T04:27:33.893Z,0.00
2022-11-20T04:28:34.505Z,0.00
2022-11-20T04:29:35.081Z,0.00
2022-11-20T04:30:35.650Z,0.00
2022-11-20T04:31:36.227Z,0.00
2022-11-20T04:32:36.814Z,0.00
2022-11-20T04:33:37.427Z,0.00
2022-11-20T04:34:38.004Z,0.00
2022-11-20T04:35:38.573Z,0.00
2022-11-20T04:36:39.150Z,0.00
2022-11-20T04:37:39.694Z,1.00
2022-11-20T04:38:40.370Z,0.00
2022-11-20T04:39:40.948Z,0.00
2022-11-20T04:40:41.518Z,0.00
2022-11-20T04:41:42.086Z,0.00
2022-11-20T04:42:42.658Z,0.00
2022-11-20T04:43:43.340Z,0.00
2022-11-20T04:44:43.864Z,1.00
2022-11-20T04:45:44.392Z,1.00
2022-11-20T04:46:44.905Z,1.00
2022-11-20T04:47:45.417Z,2.00
2022-11-20T04:48:46.029Z,2.00
2022-11-20T04:49:46.657Z,2.00
2022-11-20T04:50:47.218Z,4.00
2022-11-20T04:51:47.752Z,4.00
2022-11-20T04:52:48.278Z,5.00
2022-11-20T04:53:48.838Z,7.00
2022-11-20T04:54:49.345Z,9.00
2022-11-20T04:55:49.882Z,14.00
2022-11-20T04:56:50.798Z,20.00
2022-11-20T04:57:51.363Z,23.00
2022-11-20T04:58:51.953Z,24.00
2022-11-20T04:59:52.464Z,24.00
2022-11-20T05:00:53.347Z,26.00
2022-11-20T05:01:53.940Z,48.00
2022-11-20T05:02:54.488Z,42.00
2022-11-20T05:03:55.206Z,37.00
2022-11-20T05:04:55.719Z,44.00
2022-11-20T05:05:56.235Z,46.00
2022-11-20T05:06:56.936Z,44.00
2022-11-20T05:07:57.565Z,48.00
2022-11-20T05:08:58.138Z,54.00
2022-11-20T05:09:58.650Z,52.00
2022-11-20T05:10:59.163Z,58.00
2022-11-20T05:11:59.680Z,62.00
2022-11-20T05:13:00.228Z,64.00
2022-11-20T05:14:00.854Z,68.00
2022-11-20T05:15:01.529Z,68.00
2022-11-20T05:16:02.270Z,76.00
2022-11-20T05:17:03.001Z,80.00
2022-11-20T05:18:03.522Z,85.00
2022-11-20T05:19:04.161Z,92.00
2022-11-20T05:20:04.675Z,97.00
2022-11-20T05:21:05.195Z,104.00
2022-11-20T05:22:05.717Z,111.00
2022-11-20T05:23:06.294Z,121.00
2022-11-20T05:24:06.848Z,128.00
2022-11-20T05:25:07.380Z,128.00
2022-11-20T05:26:07.897Z,136.00
2022-11-20T05:27:08.422Z,147.00
2022-11-20T05:28:08.947Z,161.00
2022-11-20T05:29:09.574Z,173.00
2022-11-20T05:30:10.104Z,183.00
2022-11-20T05:31:10.617Z,200.00
2022-11-20T05:32:11.146Z,223.00
2022-11-20T05:33:11.670Z,244.00
2022-11-20T05:34:12.294Z,262.00
2022-11-20T05:35:12.831Z,270.00
2022-11-20T05:36:13.352Z,274.00
2022-11-20T05:37:13.864Z,280.00
2022-11-20T05:38:14.382Z,292.00
2022-11-20T05:39:14.934Z,312.00
2022-11-20T05:40:15.450Z,324.00
2022-11-20T05:41:15.967Z,345.00
2022-11-20T05:42:16.504Z,370.00
2022-11-20T05:43:17.130Z,391.00
2022-11-20T05:44:17.756Z,390.00
2022-11-20T05:45:18.284Z,407.00
2022-11-20T05:46:21.269Z,443.00
2022-11-20T05:47:19.661Z,472.00
2022-11-20T05:48:20.175Z,488.00
2022-11-20T05:49:21.102Z,509.00
2022-11-20T05:50:21.328Z,542.00
2022-11-20T05:51:21.863Z,571.00
2022-11-20T05:52:22.386Z,592.00
2022-11-20T05:53:22.901Z,642.00
2022-11-20T05:54:23.467Z,657.00
2022-11-20T05:55:23.992Z,652.00
2022-11-20T05:56:24.522Z,696.00
2022-11-20T05:57:25.041Z,716.00
2022-11-20T05:58:25.562Z,703.00
2022-11-20T05:59:26.271Z,683.00
2022-11-20T06:00:26.795Z,660.00
2022-11-20T06:01:27.350Z,642.00
2022-11-20T06:02:27.891Z,635.00
2022-11-20T06:03:28.449Z,690.00
2022-11-20T06:04:29.096Z,740.00
2022-11-20T06:05:29.611Z,733.00
2022-11-20T06:06:30.125Z,811.00
2022-11-20T06:07:30.697Z,831.00
2022-11-20T06:08:31.264Z,846.00
2022-11-20T06:09:31.812Z,870.00
2022-11-20T06:10:32.542Z,899.00
2022-11-20T06:11:33.063Z,880.00
2022-11-20T06:12:33.585Z,895.00
2022-11-20T06:13:37.932Z,889.00
2022-11-20T06:14:34.994Z,884.00
2022-11-20T06:15:35.522Z,882.00
2022-11-20T06:16:36.045Z,920.00
2022-11-20T06:17:36.563Z,981.00
2022-11-20T06:18:37.077Z,1129.00
2022-11-20T06:19:37.738Z,1238.00
2022-11-20T06:20:42.105Z,1226.00
2022-11-20T06:21:38.862Z,1190.00
2022-11-20T06:22:39.373Z,1206.00
2022-11-20T06:23:39.896Z,1248.00
2022-11-20T06:24:40.477Z,1264.00
2022-11-20T06:25:40.997Z,1339.00
2022-11-20T06:26:41.517Z,1388.00
2022-11-20T06:27:42.030Z,1451.00
2022-11-20T06:28:42.546Z,1528.00
2022-11-20T06:29:43.100Z,1529.00
2022-11-20T06:30:43.640Z,1552.00
2022-11-20T06:31:44.168Z,1616.00
2022-11-20T06:32:44.678Z,1655.00
2022-11-20T06:33:45.232Z,1628.00
2022-11-20T06:34:45.776Z,1492.00
2022-11-20T06:35:46.312Z,1387.00
2022-11-20T06:36:46.840Z,1323.00
2022-11-20T06:37:47.361Z,1250.00
2022-11-20T06:38:47.880Z,1217.00
2022-11-20T06:39:48.589Z,1177.00
2022-11-20T06:40:49.112Z,1251.00
2022-11-20T06:41:52.238Z,1280.00
2022-11-20T06:42:50.429Z,1360.00
2022-11-20T06:43:50.960Z,1417.00
2022-11-20T06:44:51.538Z,1398.00
2022-11-20T06:45:52.047Z,1414.00
2022-11-20T06:46:52.566Z,1441.00
2022-11-20T06:47:53.091Z,1560.00
2022-11-20T06:48:53.612Z,1614.00
2022-11-20T06:49:54.220Z,1634.00
2022-11-20T06:50:54.742Z,1625.00
2022-11-20T06:51:55.263Z,1567.00
2022-11-20T06:52:55.782Z,1592.00
2022-11-20T06:53:56.291Z,1599.00
2022-11-20T06:54:56.827Z,1574.00
2022-11-20T06:55:57.342Z,1632.00
2022-11-20T06:56:57.858Z,1735.00
2022-11-20T06:57:58.368Z,1795.00
2022-11-20T06:58:58.892Z,1714.00
2022-11-20T06:59:59.927Z,1634.00
2022-11-20T07:01:00.025Z,1591.00
2022-11-20T07:02:00.633Z,1603.00
2022-11-20T07:03:01.148Z,1564.00
2022-11-20T07:04:01.661Z,1640.00
2022-11-20T07:05:02.205Z,1695.00
2022-11-20T07:06:02.726Z,1662.00
2022-11-20T07:07:03.371Z,1701.00
2022-11-20T07:08:03.910Z,1848.00
2022-11-20T07:09:08.563Z,2052.00
2022-11-20T07:10:05.316Z,1865.00
2022-11-20T07:11:05.871Z,1752.00
2022-11-20T07:12:06.406Z,1720.00
2022-11-20T07:13:06.930Z,1786.00
2022-11-20T07:14:07.477Z,1727.00
2022-11-20T07:15:08.071Z,1769.00
2022-11-20T07:16:08.588Z,1803.00
2022-11-20T07:17:09.113Z,1823.00
2022-11-20T07:18:09.638Z,1890.00
2022-11-20T07:19:10.154Z,2066.00
2022-11-20T07:20:10.870Z,2079.00
2022-11-20T07:21:11.397Z,2143.00
2022-11-20T07:22:11.916Z,2179.00
2022-11-20T07:23:12.437Z,2172.00
2022-11-20T07:24:12.968Z,2171.00
2022-11-20T07:25:13.535Z,2161.00
2022-11-20T07:26:14.053Z,2197.00
2022-11-20T07:27:14.567Z,1985.00
2022-11-20T07:28:15.091Z,2024.00
2022-11-20T07:29:15.656Z,2016.00
2022-11-20T07:30:16.219Z,2153.00
2022-11-20T07:31:19.470Z,1851.00
2022-11-20T07:32:17.329Z,1827.00
2022-11-20T07:33:17.845Z,2106.00
2022-11-20T07:34:18.357Z,2465.00
2022-11-20T07:35:19.006Z,2489.00
2022-11-20T07:36:19.534Z,2510.00
2022-11-20T07:37:20.052Z,2426.00
2022-11-20T07:38:20.578Z,2061.00
2022-11-20T07:39:21.512Z,2451.00
2022-11-20T07:40:21.783Z,2624.00
2022-11-20T07:41:22.333Z,2230.00
2022-11-20T07:42:22.851Z,2181.00
2022-11-20T07:43:23.374Z,2674.00
2022-11-20T07:44:23.906Z,2121.00
2022-11-20T07:45:24.532Z,2537.00
2022-11-20T07:46:25.055Z,2587.00
2022-11-20T07:47:25.570Z,3497.00
2022-11-20T07:48:26.134Z,2943.00
2022-11-20T07:49:26.651Z,2926.00
2022-11-20T07:50:27.358Z,2725.00
2022-11-20T07:51:27.908Z,2610.00
2022-11-20T07:52:28.433Z,2746.00
2022-11-20T07:53:28.957Z,2663.00
2022-11-20T07:54:29.487Z,2932.00
2022-11-20T07:55:30.038Z,3044.00
2022-11-20T07:56:30.562Z,2862.00
2022-11-20T07:57:31.083Z,2745.00
2022-11-20T07:58:31.602Z,2768.00
2022-11-20T07:59:32.144Z,2779.00
2022-11-20T08:00:33.214Z,2743.00
2022-11-20T08:01:33.256Z,2812.00
2022-11-20T08:02:33.771Z,2878.00
2022-11-20T08:03:34.290Z,2863.00
2022-11-20T08:04:34.813Z,2792.00
2022-11-20T08:05:35.396Z,2965.00
2022-11-20T08:06:35.915Z,2946.00
2022-11-20T08:07:36.485Z,3064.00
2022-11-20T08:08:42.464Z,3093.00
2022-11-20T08:09:37.884Z,3039.00
2022-11-20T08:10:38.432Z,2929.00
2022-11-20T08:11:38.963Z,2935.00
2022-11-20T08:12:39.480Z,3015.00
2022-11-20T08:13:40.034Z,2967.00
2022-11-20T08:14:40.559Z,3051.00
2022-11-20T08:15:41.195Z,2800.00
2022-11-20T08:16:41.713Z,2648.00
2022-11-20T08:17:42.237Z,2666.00
2022-11-20T08:18:42.756Z,2576.00
2022-11-20T08:19:43.286Z,2613.00
2022-11-20T08:20:43.934Z,2518.00
2022-11-20T08:21:44.446Z,2570.00
2022-11-20T08:22:45.004Z,2524.00
2022-11-20T08:23:45.521Z,2472.00
2022-11-20T08:24:46.042Z,2517.00
2022-11-20T08:25:46.591Z,2536.00
2022-11-20T08:26:47.136Z,2488.00
2022-11-20T08:27:47.669Z,2504.00
2022-11-20T08:28:48.193Z,2628.00
2022-11-20T08:29:48.706Z,2560.00
2022-11-20T08:30:49.357Z,2511.00
2022-11-20T08:31:49.880Z,2517.00
2022-11-20T08:32:50.402Z,2616.00
2022-11-20T08:33:50.937Z,2469.00
2022-11-20T08:34:51.467Z,2438.00
2022-11-20T08:35:52.073Z,2459.00
2022-11-20T08:36:52.597Z,2456.00
2022-11-20T08:37:53.119Z,2489.00
2022-11-20T08:38:53.632Z,2427.00
2022-11-20T08:39:54.139Z,2424.00
2022-11-20T08:40:54.699Z,2465.00
2022-11-20T08:41:55.222Z,2424.00
2022-11-20T08:42:55.749Z,2549.00
2022-11-20T08:43:56.282Z,2541.00
2022-11-20T08:44:56.802Z,2455.00
2022-11-20T08:45:57.385Z,2492.00
2022-11-20T08:46:57.905Z,2491.00
2022-11-20T08:47:58.438Z,2439.00
2022-11-20T08:48:58.965Z,2405.00
2022-11-20T08:49:59.486Z,2385.00
2022-11-20T08:51:00.094Z,2371.00
2022-11-20T08:52:00.619Z,2358.00
2022-11-20T08:53:01.150Z,2415.00
2022-11-20T08:54:01.681Z,2379.00
2022-11-20T08:55:02.189Z,2406.00
2022-11-20T08:56:02.752Z,2415.00
2022-11-20T08:57:04.210Z,2543.00
2022-11-20T08:58:04.064Z,2572.00
2022-11-20T09:00:06.917Z,2736.00
2022-11-20T09:01:06.944Z,2658.00
2022-11-20T09:02:07.022Z,2596.00
2022-11-20T09:03:07.550Z,2499.00
2022-11-20T09:04:08.091Z,2625.00
2022-11-20T09:05:08.614Z,2543.00
2022-11-20T09:06:09.173Z,2453.00
2022-11-20T09:07:09.838Z,2402.00
2022-11-20T09:08:10.472Z,2372.00
2022-11-20T09:09:10.979Z,2445.00
2022-11-20T09:10:23.729Z,2339.00
2022-11-20T09:11:12.401Z,2714.00
2022-11-20T09:12:12.939Z,2816.00
2022-11-20T09:13:13.446Z,2651.00
2022-11-20T09:14:13.981Z,2490.00
2022-11-20T09:15:14.505Z,2510.00
2022-11-20T09:16:15.090Z,2449.00
2022-11-20T09:17:15.616Z,2690.00
2022-11-20T09:18:16.146Z,2832.00
2022-11-20T09:20:17.535Z,2599.00
2022-11-20T09:21:18.301Z,2648.00
2022-11-20T09:22:18.853Z,2722.00
2022-11-20T09:23:19.364Z,2503.00
2022-11-20T09:24:19.872Z,2359.00
2022-11-20T09:25:20.407Z,2187.00
2022-11-20T09:26:20.967Z,2067.00
2022-11-20T09:27:21.488Z,2083.00
2022-11-20T09:28:22.018Z,2101.00
2022-11-20T09:29:23.145Z,2115.00
2022-11-20T09:30:23.475Z,2098.00
2022-11-20T09:31:24.372Z,2122.00
2022-11-20T09:32:24.901Z,2257.00
2022-11-20T09:33:25.420Z,2498.00
2022-11-20T09:34:25.950Z,2573.00
2022-11-20T09:35:26.568Z,2745.00
2022-11-20T09:36:27.189Z,2821.00
2022-11-20T09:37:27.729Z,2767.00
2022-11-20T09:38:28.306Z,2778.00
2022-11-20T09:39:29.131Z,2857.00
2022-11-20T09:40:29.687Z,2871.00
2022-11-20T09:41:30.237Z,2926.00
2022-11-20T09:42:30.759Z,2933.00
2022-11-20T09:43:34.859Z,2991.00
2022-11-20T09:44:32.216Z,2999.00
2022-11-20T09:45:32.745Z,3054.00
2022-11-20T09:46:33.335Z,2881.00
2022-11-20T09:47:33.866Z,2851.00
2022-11-20T09:48:34.392Z,2939.00
2022-11-20T09:49:35.283Z,2886.00
2022-11-20T09:50:35.498Z,2903.00
2022-11-20T09:51:36.135Z,2918.00
2022-11-20T09:52:36.663Z,2834.00
2022-11-20T09:53:37.192Z,2690.00
2022-11-20T09:54:37.716Z,2755.00
2022-11-20T09:55:38.236Z,2710.00
2022-11-20T09:56:38.779Z,2413.00
2022-11-20T09:57:39.287Z,2577.00
2022-11-20T09:58:39.863Z,2793.00
2022-11-20T09:59:40.392Z,3301.00
2022-11-20T10:00:40.960Z,3546.00
2022-11-20T10:01:41.559Z,3533.00
2022-11-20T10:02:42.075Z,3467.00
2022-11-20T10:03:42.598Z,4148.00
2022-11-20T10:04:43.144Z,5022.00
2022-11-20T10:05:43.670Z,4090.00
2022-11-20T10:06:44.295Z,3953.00
2022-11-20T10:07:44.876Z,3824.00
2022-11-20T10:08:45.407Z,3691.00
2022-11-20T10:09:45.941Z,3548.00
2022-11-20T10:10:50.755Z,3520.00
2022-11-20T10:11:47.449Z,3478.00
2022-11-20T10:12:47.977Z,3588.00
2022-11-20T10:13:48.489Z,3832.00
2022-11-20T10:14:49.024Z,4186.00
2022-11-20T10:15:49.543Z,3809.00
2022-11-20T10:16:50.103Z,4059.00
2022-11-20T10:17:50.636Z,4643.00
2022-11-20T10:18:51.164Z,5540.00
2022-11-20T10:19:51.687Z,4628.00
2022-11-20T10:20:52.202Z,4689.00
2022-11-20T10:21:52.828Z,4855.00
2022-11-20T10:22:53.352Z,4706.00
2022-11-20T10:23:53.885Z,4538.00
2022-11-20T10:24:54.414Z,4516.00
2022-11-20T10:25:54.942Z,5115.00
2022-11-20T10:26:55.485Z,4895.00
2022-11-20T10:27:56.005Z,4846.00
2022-11-20T10:28:59.813Z,5054.00
2022-11-20T10:29:57.380Z,5630.00
2022-11-20T10:30:57.911Z,5877.00
2022-11-20T10:31:58.504Z,6299.00
2022-11-20T10:32:59.040Z,6512.00
2022-11-20T10:34:19.382Z,5704.00
2022-11-20T10:35:00.439Z,5278.00
2022-11-20T10:36:00.961Z,5506.00
2022-11-20T10:37:01.623Z,5342.00
2022-11-20T10:38:02.134Z,5079.00
2022-11-20T10:39:02.667Z,4454.00
2022-11-20T10:40:03.193Z,4059.00
2022-11-20T10:41:03.713Z,7214.00
2022-11-20T10:42:04.280Z,4316.00
2022-11-20T10:43:04.821Z,6766.00
2022-11-20T10:44:05.348Z,10445.00
2022-11-20T10:45:06.806Z,3673.00
2022-11-20T10:46:06.606Z,18232.00
2022-11-20T10:47:07.193Z,18001.00
2022-11-20T10:48:07.714Z,13090.00
2022-11-20T10:49:08.241Z,7809.00
2022-11-20T10:50:08.756Z,9513.00
2022-11-20T10:51:09.288Z,8465.00
2022-11-20T10:52:09.862Z,6833.00
2022-11-20T10:53:10.392Z,8672.00
2022-11-20T10:54:10.962Z,5466.00
2022-11-20T10:55:11.491Z,19461.00
2022-11-20T10:56:12.020Z,16545.00
2022-11-20T10:57:12.561Z,13415.00
2022-11-20T10:58:13.078Z,11575.00
2022-11-20T10:59:13.591Z,15405.00
2022-11-20T11:00:14.106Z,14213.00
2022-11-20T11:01:14.742Z,16661.00
2022-11-20T11:02:15.386Z,13562.00
2022-11-20T11:03:15.919Z,17103.00
2022-11-20T11:04:16.441Z,15796.00
2022-11-20T11:05:16.962Z,20310.00
2022-11-20T11:06:17.486Z,17156.00
2022-11-20T11:07:18.320Z,18324.00
2022-11-20T11:08:18.883Z,20701.00
2022-11-20T11:09:20.018Z,22310.00
2022-11-20T11:10:20.311Z,22030.00
2022-11-20T11:11:20.835Z,10366.00
2022-11-20T11:12:21.660Z,17561.00
2022-11-20T11:13:22.194Z,8167.00
2022-11-20T11:14:22.702Z,14125.00
2022-11-20T11:15:23.220Z,4453.00
2022-11-20T11:16:23.746Z,21169.00
2022-11-20T11:17:24.331Z,8346.00
2022-11-20T11:18:24.855Z,12291.00
2022-11-20T11:19:25.843Z,13233.00
2022-11-20T11:20:26.060Z,13530.00
2022-11-20T11:21:26.588Z,23221.00
2022-11-20T11:22:27.237Z,18408.00
2022-11-20T11:23:27.773Z,12134.00
2022-11-20T11:24:42.218Z,11792.00
2022-11-20T11:25:29.177Z,19998.00
2022-11-20T11:26:29.745Z,17995.00
2022-11-20T11:27:30.284Z,22339.00
2022-11-20T11:28:30.803Z,22419.00
2022-11-20T11:29:31.326Z,15956.00
2022-11-20T11:30:31.854Z,19815.00
2022-11-20T11:31:32.385Z,20054.00
2022-11-20T11:32:32.937Z,20892.00
2022-11-20T11:33:33.453Z,23024.00
2022-11-20T11:34:33.974Z,19495.00
2022-11-20T11:35:35.261Z,16341.00
2022-11-20T11:36:35.317Z,12716.00
2022-11-20T11:37:36.012Z,20251.00
2022-11-20T11:38:36.526Z,11245.00
2022-11-20T11:39:37.050Z,20756.00
2022-11-20T11:40:37.558Z,20500.00
2022-11-20T11:41:38.296Z,22031.00
2022-11-20T11:42:40.120Z,18857.00
2022-11-20T11:43:39.644Z,24608.00
2022-11-20T11:44:40.170Z,14833.00
2022-11-20T11:45:40.706Z,27599.00
2022-11-20T11:46:41.237Z,14318.00
2022-11-20T11:47:41.834Z,10351.00
2022-11-20T11:48:45.791Z,13386.00
2022-11-20T11:49:43.210Z,19377.00
2022-11-20T11:50:43.752Z,11274.00
2022-11-20T11:51:43.393Z,10340.00
2022-11-20T11:52:45.006Z,8712.00
2022-11-20T11:53:45.525Z,4476.00
2022-11-20T11:54:46.065Z,10297.00
2022-11-20T11:55:46.590Z,7061.00
2022-11-20T11:56:47.106Z,11788.00
2022-11-20T11:57:47.674Z,5674.00
2022-11-20T11:58:48.209Z,20597.00
2022-11-20T11:59:48.747Z,15635.00
2022-11-20T12:00:49.267Z,9922.00
2022-11-20T12:01:50.284Z,7352.00
2022-11-20T12:02:50.462Z,8440.00
2022-11-20T12:03:50.987Z,7071.00
2022-11-20T12:04:51.512Z,8381.00
2022-11-20T12:05:52.036Z,7192.00
2022-11-20T12:06:52.552Z,19938.00
2022-11-20T12:07:53.184Z,8174.00
2022-11-20T12:08:53.740Z,7811.00
2022-11-20T12:09:54.267Z,8268.00
2022-11-20T12:10:54.795Z,4127.00
2022-11-20T12:11:55.314Z,12586.00
2022-11-20T12:12:56.019Z,16775.00
2022-11-20T12:13:56.544Z,12415.00
2022-11-20T12:14:57.066Z,2932.00
2022-11-20T12:15:57.596Z,12639.00
2022-11-20T12:16:58.126Z,7092.00
2022-11-20T12:17:58.715Z,3781.00
2022-11-20T12:18:59.234Z,3799.00
2022-11-20T12:19:59.745Z,9001.00
2022-11-20T12:21:00.269Z,7084.00
2022-11-20T12:22:04.136Z,14816.00
2022-11-20T12:23:01.653Z,6555.00
2022-11-20T12:24:02.178Z,4632.00
2022-11-20T12:25:02.705Z,6803.00
2022-11-20T12:26:03.237Z,3431.00
2022-11-20T12:27:03.755Z,7869.00
2022-11-20T12:28:04.320Z,4450.00
2022-11-20T12:29:04.849Z,14293.00
2022-11-20T12:30:05.404Z,14200.00
2022-11-20T12:31:05.981Z,14649.00
2022-11-20T12:32:06.511Z,9398.00
2022-11-20T12:33:07.084Z,11383.00
2022-11-20T12:34:07.607Z,7368.00
2022-11-20T12:35:11.420Z,7403.00
2022-11-20T12:36:08.748Z,1976.00
2022-11-20T12:37:09.283Z,8176.00
2022-11-20T12:38:09.974Z,7045.00
2022-11-20T12:39:10.498Z,5423.00
2022-11-20T12:40:11.017Z,3907.00
2022-11-20T12:41:11.552Z,3413.00
2022-11-20T12:42:12.100Z,3232.00
2022-11-20T12:43:12.698Z,2991.00